Pagina principale
METAR-TAF:

METAR-TAF

Aeroporti :

Sabadell, Spagna

latitudine: 41-31N, longitudine: 002-06E, altezza: 250 m

Osservazione

Il bollettino è stato emesso 10 minuti fa, alle 19:00 UTC
Vento 5 kt da ovest/nord-ovest, variando fra ovest/sud-ovest e nord/nord-ovest
Temperature 15°C
Umidità 59%
Pressione 1020 hPa
Visibilità 10 km o più
nessuna nube inferiore a 1500 m e nessun cumulonembo

METAR: LELL 241900Z AUTO 29005KT 240V330 CAVOK 15/07 Q1020

Ora: 20:10 (19:10 UTC)

Previsione

Il bollettino è stato emesso 5 ore e 10 minuti fa, alle 14:00 UTC
Previsione valida dal 24 alle 15 UTC al 25 alle 15 UTC
Vento 3 kt da direzioni variabili
Visibilità 10 km o più
nessuna nube inferiore a 1500 m e nessun cumulonembo
Temporaneamente
dal 24 alle 15 UTC al 24 alle 18 UTC
Vento 7 kt da sud-ovest

TAF: LELL 241400Z 2415/2515 VRB03KT CAVOK TX18/2513Z TN07/2506Z TEMPO 2415/2418 23007KT

Osservazioni e previsioni meteorologiche di più di 4000 aeroporti (messaggi METAR e TAF).

Le stazioni disponibili sono rappresentate dai dischi gialli e rossi sulla carta.

Puntare il mouse per vedere il nome della stazione.

Clicca sopra per visualizzare le osservazioni e previsioni meteorologiche.

Per cambiare la mappa : fare clic sui pulsanti verdi con una croce nera per ingrandire, il pulsante verde con un trattino per diminuire, o sulla freccia verde per le mappe adiacenti.


METAR-TAF: